Terminal Aerodrome Forecast
Issued by NWS Brownsville, TX

Home | Current Version | Previous Version | Text Only | Print | Product List | Glossary On
Versions: 1 2 3 4 5 6 7 8 9 10 11 12 13 14 15 16 17
000
FTUS44 KBRO 222300 RRA
TAFHRL
TAF
KHRL 222342Z 2300/2324 14014KT P6SM SKC
     FM230400 15005KT P6SM FEW015
     FM231000 11005KT 6SM BR SCT015
     FM231500 14013KT P6SM SCT035=

USA.gov is the U.S. government's official web portal to all federal, state and local government web resources and services.